TED STEVENS ANCHORAGE INTL

PANC (ANC)
Anchorage, Alaska
Towered

Vatsim Metar:
PANC 131853Z 10004KT 10SM -RA FEW005 BKN036 OVC050 02/00 A2999 RMK AO2 SLP156 P0001 T00220000